Flight Number: AVA1332 Duration: 3:00
Departure: Krakow Balice (EPKK) at 03:30 Distance: 1096.75 Nm
Arrival: Larnaca Intl Airport (LCLK) at 06:30 Equipment: A321

Weather Information
Krakow, Poland (EPKK) 50-05N 019-48E 237M Apr 07, 2020 - 11:30 AM EDT / 2020.04.07 1530 UTC
Wind: from the WSW (250 degrees) at 10 MPH (9 KT):0
Visibility: greater than 7 mile(s):0 Temperature: 66 F (19 C) Dew Point: 19 F (-7 C) Relative Humidity: 16% Pressure (altimeter): 30.42 in. Hg (1030 hPa)
ob: EPKK 071530Z 25009KT CAVOK 19/M07 Q1030 cycle: 15
Sunrise: 04:05 Sunset: 17:19 (UTC)

Larnaca Airport, Cyprus (LCLK) 34-53N 033-38E 2M Apr 07, 2020 - 11:30 AM EDT / 2020.04.07 1530 UTC
Wind: from the SW (220 degrees) at 7 MPH (6 KT) (direction variable):0
Visibility: greater than 7 mile(s):0
Sky conditions: mostly cloudy Temperature: 66 F (19 C) Dew Point: 55 F (13 C) Relative Humidity: 68% Pressure (altimeter): 29.91 in. Hg (1013 hPa)
ob: LCLK 071530Z 22006KT 190V250 9999 FEW025 BKN040 19/13 Q1013 NOSIG cycle: 15
Sunrise: 03:25 Sunset: 16:09 (UTC)

TAF:2020/04/07 12:30 TAF LCLK 071130Z 0712/0812 21014KT 9999 SCT025 BECMG 0714/0717 33007KT BECMG 0810/0812 21014KT

This route has never been flown.

Route map